Time;durP1;ratioP1;P1;durP2;ratioP2;P2;SDS_P1;SDS_P2;PMS_P1;PMS_P2;Temp;Humidity;BMP_temperature;BMP_pressure;BME280_temperature;BME280_humidity;BME280_pressure;Samples;Min_cycle;Max_cycle;Signal;HPM_P1;HPM_P2
2023/01/11 00:01:31;;;;;;;0.22;0.20;;;22.30;39.50;;;;;;5026010;28;20049;-54
2023/01/11 00:03:57;;;;;;;0.60;0.40;;;22.40;39.70;;;;;;5026579;28;20033;-54
2023/01/11 00:06:23;;;;;;;2.05;0.20;;;22.30;39.70;;;;;;5030679;28;20030;-53
2023/01/11 00:08:49;;;;;;;0.60;0.30;;;22.30;39.70;;;;;;5030279;28;20060;-53
2023/01/11 00:11:15;;;;;;;0.90;0.63;;;22.30;39.80;;;;;;5032725;28;20029;-54
2023/01/11 00:13:44;;;;;;;0.93;0.30;;;22.30;39.90;;;;;;5026675;28;20049;-53
2023/01/11 00:16:10;;;;;;;1.08;0.28;;;22.30;40.00;;;;;;5032096;28;20083;-55
2023/01/11 00:18:37;;;;;;;0.52;0.25;;;22.20;39.90;;;;;;5029380;28;20396;-53
2023/01/11 00:21:06;;;;;;;0.32;0.32;;;22.20;40.00;;;;;;5033720;28;20111;-49
2023/01/11 00:23:36;;;;;;;1.23;0.30;;;22.20;40.10;;;;;;5033057;28;20081;-50
2023/01/11 00:26:09;;;;;;;0.50;0.22;;;22.20;40.10;;;;;;5033763;28;20044;-53
2023/01/11 00:28:35;;;;;;;0.45;0.30;;;22.20;40.20;;;;;;5033709;28;20360;-51
2023/01/11 00:31:01;;;;;;;0.40;0.30;;;22.10;40.30;;;;;;5034070;28;20041;-53
2023/01/11 00:33:27;;;;;;;0.40;0.30;;;22.10;40.30;;;;;;5033247;28;20041;-50
2023/01/11 00:35:53;;;;;;;0.68;0.40;;;22.10;40.40;;;;;;5033585;28;20041;-47
2023/01/11 00:39:06;;;;;;;0.75;0.30;;;22.10;40.50;;;;;;5033840;28;20090;-52
2023/01/11 00:49:21;;;;;;;2.53;0.38;;;22.00;40.70;;;;;;5033266;28;20029;-54
2023/01/11 00:51:46;;;;;;;0.28;0.20;;;22.00;40.80;;;;;;5026433;28;20024;-51
2023/01/11 00:54:14;;;;;;;1.25;0.30;;;22.00;40.90;;;;;;5019420;28;20026;-53
2023/01/11 00:56:40;;;;;;;0.95;0.30;;;22.00;41.00;;;;;;5021709;28;20029;-52
2023/01/11 00:59:06;;;;;;;1.40;0.32;;;21.90;41.00;;;;;;5025559;28;20029;-54
2023/01/11 01:01:32;;;;;;;0.93;0.30;;;21.90;41.00;;;;;;5021444;28;20156;-55
2023/01/11 01:03:59;;;;;;;1.15;0.30;;;21.90;41.10;;;;;;5025266;28;20064;-51
2023/01/11 01:06:26;;;;;;;0.50;0.30;;;21.90;41.10;;;;;;5029641;28;20464;-52
2023/01/11 01:08:51;;;;;;;0.40;0.20;;;21.90;41.20;;;;;;5025162;28;20036;-49
2023/01/11 01:11:17;;;;;;;0.50;0.35;;;21.80;41.20;;;;;;5020706;28;20033;-52
2023/01/11 01:16:28;;;;;;;0.40;0.30;;;21.90;41.40;;;;;;5026882;28;20038;-54
2023/01/11 01:18:56;;;;;;;0.82;0.30;;;21.90;41.40;;;;;;5023030;28;20022;-54
2023/01/11 01:21:22;;;;;;;0.20;0.20;;;21.90;41.40;;;;;;5025319;28;20096;-51
2023/01/11 01:23:58;;;;;;;0.32;0.25;;;21.80;41.50;;;;;;5018441;28;20052;-54
2023/01/11 01:26:24;;;;;;;1.67;0.30;;;21.80;41.50;;;;;;5021002;28;20029;-55
2023/01/11 01:28:50;;;;;;;0.52;0.20;;;21.80;41.60;;;;;;5023683;28;20108;-52
2023/01/11 01:31:16;;;;;;;0.57;0.30;;;21.80;41.70;;;;;;5010047;28;20041;-54
2023/01/11 01:33:42;;;;;;;1.05;0.40;;;21.80;41.70;;;;;;5018965;28;20091;-54
2023/01/11 01:36:08;;;;;;;0.40;0.22;;;21.80;41.80;;;;;;5023242;28;20353;-55
2023/01/11 01:38:34;;;;;;;0.60;0.17;;;21.80;41.80;;;;;;5023690;28;20021;-51
2023/01/11 01:41:00;;;;;;;0.38;0.30;;;21.70;41.80;;;;;;5021657;28;20067;-55
2023/01/11 01:43:45;;;;;;;0.82;0.40;;;21.70;41.90;;;;;;5024370;28;20241;-54
2023/01/11 01:46:11;;;;;;;0.60;0.30;;;21.70;42.00;;;;;;5026760;28;20033;-59
2023/01/11 01:48:38;;;;;;;0.63;0.28;;;21.70;42.00;;;;;;5021186;28;20096;-49
2023/01/11 01:51:07;;;;;;;0.30;0.20;;;21.70;42.10;;;;;;5026868;28;20088;-51
2023/01/11 01:53:42;;;;;;;0.45;0.10;;;21.70;42.20;;;;;;5022849;28;20110;-54
2023/01/11 01:56:21;;;;;;;0.70;0.30;;;21.70;42.20;;;;;;5023055;28;20069;-53
2023/01/11 01:58:53;;;;;;;0.95;0.15;;;21.70;42.30;;;;;;5027646;28;20021;-52
2023/01/11 02:04:29;;;;;;;0.82;0.30;;;21.60;42.40;;;;;;4969859;28;20039;-50
2023/01/11 02:06:57;;;;;;;0.65;0.25;;;21.60;42.50;;;;;;5024602;28;20041;-53
2023/01/11 02:09:31;;;;;;;0.43;0.25;;;21.60;42.60;;;;;;5031052;28;20036;-50
2023/01/11 02:12:00;;;;;;;0.57;0.38;;;21.60;42.70;;;;;;5024765;28;20025;-52
2023/01/11 02:14:28;;;;;;;0.45;0.30;;;21.60;42.70;;;;;;5025562;28;20029;-53
2023/01/11 02:16:54;;;;;;;0.35;0.17;;;21.60;42.80;;;;;;5027952;28;20144;-49
2023/01/11 02:19:29;;;;;;;0.30;0.20;;;21.60;42.80;;;;;;5008753;28;20488;-53
2023/01/11 02:22:38;;;;;;;0.50;0.13;;;21.60;42.90;;;;;;5034390;28;20037;-50
2023/01/11 02:25:19;;;;;;;0.60;0.30;;;21.60;42.90;;;;;;5036094;28;20367;-54
2023/01/11 02:28:06;;;;;;;1.02;0.30;;;21.50;42.90;;;;;;5034856;28;20377;-52
2023/01/11 02:30:53;;;;;;;0.40;0.17;;;21.50;43.00;;;;;;5035869;28;20064;-53
2023/01/11 02:33:50;;;;;;;1.23;0.25;;;21.50;43.10;;;;;;5018013;28;20172;-51
2023/01/11 02:36:30;;;;;;;0.30;0.17;;;21.50;43.10;;;;;;5035811;28;20064;-50
2023/01/11 02:39:27;;;;;;;0.30;0.20;;;21.50;43.20;;;;;;5032066;28;20030;-49
2023/01/11 02:45:45;;;;;;;0.35;0.10;;;21.50;43.40;;;;;;5035668;28;20059;-52
2023/01/11 02:48:23;;;;;;;0.17;0.17;;;21.50;43.40;;;;;;5033361;28;20022;-50
2023/01/11 02:51:25;;;;;;;0.43;0.30;;;21.50;43.50;;;;;;5029928;28;20105;-55
2023/01/11 02:54:00;;;;;;;0.13;0.10;;;21.50;43.60;;;;;;5022385;28;20412;-54
2023/01/11 02:56:30;;;;;;;0.30;0.13;;;21.40;43.60;;;;;;5007649;28;20061;-50
2023/01/11 02:58:57;;;;;;;0.45;0.20;;;21.40;43.60;;;;;;5026402;28;20091;-51
2023/01/11 03:01:24;;;;;;;0.30;0.20;;;21.40;43.70;;;;;;5024255;28;20034;-51
2023/01/11 03:03:51;;;;;;;0.25;0.20;;;21.40;43.70;;;;;;5024253;28;20092;-52
2023/01/11 03:06:26;;;;;;;0.10;0.10;;;21.40;43.80;;;;;;5032371;28;20040;-56
2023/01/11 03:08:55;;;;;;;0.30;0.10;;;21.40;43.90;;;;;;5023377;28;20067;-53
2023/01/11 03:14:59;;;;;;;0.20;0.10;;;21.30;43.90;;;;;;5004370;28;20468;-52
2023/01/11 03:17:46;;;;;;;0.30;0.10;;;21.40;44.00;;;;;;5033097;28;20030;-56
2023/01/11 03:20:27;;;;;;;0.10;0.10;;;21.30;44.00;;;;;;5029444;28;20040;-49
2023/01/11 03:23:05;;;;;;;0.22;0.20;;;21.30;44.00;;;;;;5021030;28;20363;-51
2023/01/11 03:25:58;;;;;;;0.03;0.00;;;21.30;44.10;;;;;;5029316;28;20025;-54
2023/01/11 03:28:41;;;;;;;0.15;0.15;;;21.30;44.20;;;;;;5025708;28;20361;-51
2023/01/11 03:31:22;;;;;;;0.73;0.20;;;21.30;44.20;;;;;;5016775;28;20025;-48
2023/01/11 03:34:14;;;;;;;0.43;0.20;;;21.30;44.40;;;;;;5033138;28;20045;-51
2023/01/11 03:36:48;;;;;;;0.20;0.10;;;21.30;44.40;;;;;;5031104;28;20373;-52
2023/01/11 03:39:19;;;;;;;0.20;0.10;;;21.30;44.40;;;;;;5028039;28;20025;-50
2023/01/11 03:41:48;;;;;;;0.10;0.10;;;21.30;45.10;;;;;;5028453;28;20025;-53
2023/01/11 03:44:17;;;;;;;0.32;0.10;;;21.30;44.60;;;;;;5022137;28;20126;-51
2023/01/11 03:46:47;;;;;;;0.30;0.20;;;21.20;44.60;;;;;;5023145;28;20033;-47
2023/01/11 03:49:16;;;;;;;0.10;0.10;;;21.20;44.60;;;;;;5025946;28;20057;-50
2023/01/11 03:51:44;;;;;;;0.38;0.20;;;21.30;44.70;;;;;;5023189;28;20034;-50
2023/01/11 03:54:19;;;;;;;0.68;0.20;;;21.30;44.80;;;;;;5033607;28;20029;-54
2023/01/11 03:56:51;;;;;;;;;;;21.30;44.90;;;;;;5027007;28;20028;-46
2023/01/11 03:59:17;;;;;;;0.45;0.20;;;21.20;45.50;;;;;;5027097;28;19909;-47
2023/01/11 04:01:43;;;;;;;0.65;0.08;;;21.30;44.90;;;;;;5023918;28;20120;-51
2023/01/11 04:04:08;;;;;;;0.30;0.30;;;21.20;44.90;;;;;;5025299;28;20120;-50
2023/01/11 04:06:36;;;;;;;0.10;0.10;;;21.20;45.00;;;;;;5029301;28;20080;-50
2023/01/11 04:09:03;;;;;;;0.20;0.10;;;21.20;45.10;;;;;;5032212;28;20029;-51
2023/01/11 04:11:29;;;;;;;0.10;0.10;;;21.20;45.70;;;;;;5032047;28;20037;-55
2023/01/11 04:13:55;;;;;;;0.13;0.10;;;21.20;45.10;;;;;;5029001;28;20021;-51
2023/01/11 04:16:20;;;;;;;0.40;0.17;;;21.20;45.20;;;;;;5028759;28;20045;-51
2023/01/11 04:18:46;;;;;;;0.10;0.10;;;21.20;45.20;;;;;;5009739;28;20480;-48
2023/01/11 04:21:12;;;;;;;0.45;0.10;;;21.20;45.30;;;;;;5033260;28;20091;-51
2023/01/11 04:23:38;;;;;;;0.15;0.10;;;21.20;45.30;;;;;;5018535;28;20049;-51
2023/01/11 04:26:04;;;;;;;0.10;0.10;;;21.20;45.40;;;;;;5033356;28;20094;-52
2023/01/11 04:28:29;;;;;;;0.55;0.20;;;21.20;45.40;;;;;;5032950;28;20030;-53
2023/01/11 04:30:55;;;;;;;0.20;0.20;;;21.20;45.50;;;;;;5033977;28;20025;-53
2023/01/11 04:33:21;;;;;;;0.20;0.10;;;21.20;45.50;;;;;;5016146;28;20025;-55
2023/01/11 04:35:48;;;;;;;0.10;0.10;;;21.20;45.60;;;;;;5033819;28;20373;-50
2023/01/11 04:38:14;;;;;;;0.10;0.10;;;21.20;45.60;;;;;;5032779;28;20044;-52
2023/01/11 04:40:40;;;;;;;0.13;0.03;;;21.20;45.70;;;;;;5035116;28;20349;-51
2023/01/11 04:43:06;;;;;;;0.03;0.00;;;21.20;45.70;;;;;;5033451;28;20037;-48
2023/01/11 04:45:32;;;;;;;0.13;0.10;;;21.20;45.80;;;;;;5033829;28;20106;-54
2023/01/11 04:47:58;;;;;;;0.10;0.00;;;21.20;45.80;;;;;;5032589;28;20599;-52
2023/01/11 04:50:25;;;;;;;0.20;0.20;;;21.10;45.90;;;;;;5027139;28;20084;-52
2023/01/11 04:52:51;;;;;;;0.15;0.10;;;21.20;45.90;;;;;;5024099;28;20037;-54
2023/01/11 04:55:17;;;;;;;0.10;0.10;;;21.10;45.90;;;;;;5020679;28;20029;-53
2023/01/11 04:57:44;;;;;;;0.20;0.10;;;21.10;45.90;;;;;;5019317;28;20061;-51
2023/01/11 05:00:10;;;;;;;0.52;0.30;;;21.10;46.00;;;;;;5027011;28;20419;-53
2023/01/11 05:02:37;;;;;;;0.20;0.03;;;21.10;46.00;;;;;;5019477;28;20044;-53
2023/01/11 05:05:04;;;;;;;0.00;0.00;;;21.10;46.10;;;;;;5010363;28;20356;-48
2023/01/11 05:07:30;;;;;;;0.20;0.20;;;21.10;46.10;;;;;;5026929;28;20139;-51
2023/01/11 05:09:56;;;;;;;0.30;0.10;;;21.10;46.20;;;;;;5025511;28;20033;-51
2023/01/11 05:12:22;;;;;;;0.35;0.10;;;21.10;46.30;;;;;;5022890;28;20105;-51
2023/01/11 05:14:48;;;;;;;0.17;0.10;;;21.10;46.30;;;;;;5025584;28;20033;-51
2023/01/11 05:17:15;;;;;;;0.77;0.10;;;21.10;46.30;;;;;;5022150;28;20038;-53
2023/01/11 05:19:41;;;;;;;0.20;0.10;;;21.10;46.30;;;;;;5001501;28;20030;-48
2023/01/11 05:22:08;;;;;;;0.20;0.10;;;21.10;46.30;;;;;;5016025;28;20457;-51
2023/01/11 05:24:34;;;;;;;0.30;0.10;;;21.10;46.30;;;;;;5023949;28;20360;-50
2023/01/11 05:27:00;;;;;;;0.10;0.10;;;21.10;46.30;;;;;;5022459;28;20030;-52
2023/01/11 05:29:27;;;;;;;0.60;0.20;;;21.10;46.30;;;;;;5022485;28;20029;-53
2023/01/11 05:31:53;;;;;;;0.60;0.20;;;21.00;46.30;;;;;;5024091;28;20473;-50
2023/01/11 05:34:19;;;;;;;0.47;0.20;;;21.10;46.30;;;;;;5013426;28;20049;-50
2023/01/11 05:36:45;;;;;;;0.20;0.10;;;21.10;46.50;;;;;;5025521;28;20030;-50
2023/01/11 05:39:12;;;;;;;0.10;0.10;;;21.00;46.50;;;;;;5026071;28;20049;-52
2023/01/11 05:41:38;;;;;;;0.65;0.20;;;21.00;46.50;;;;;;5030700;28;20025;-49
2023/01/11 05:46:49;;;;;;;;;;;21.00;46.50;;;;;;5025691;28;20053;-52
2023/01/11 05:49:15;;;;;;;0.70;0.32;;;21.00;46.50;;;;;;5024862;28;19971;-52
2023/01/11 05:51:42;;;;;;;0.88;0.30;;;21.00;46.50;;;;;;5027716;28;20030;-51
2023/01/11 05:54:11;;;;;;;0.90;0.30;;;21.00;46.60;;;;;;5025179;28;20024;-49
2023/01/11 05:56:37;;;;;;;0.57;0.20;;;21.00;46.70;;;;;;5026086;28;20125;-49
2023/01/11 05:59:03;;;;;;;0.55;0.32;;;21.00;46.70;;;;;;5030372;28;20104;-53
2023/01/11 06:01:30;;;;;;;0.43;0.20;;;21.00;46.70;;;;;;5006872;28;20453;-50
2023/01/11 06:03:56;;;;;;;0.70;0.30;;;21.00;46.70;;;;;;5025705;28;20140;-55
2023/01/11 06:06:22;;;;;;;0.82;0.30;;;21.00;46.70;;;;;;5028827;28;20124;-50
2023/01/11 06:08:48;;;;;;;0.75;0.40;;;21.00;46.70;;;;;;5034713;28;20025;-51
2023/01/11 06:11:14;;;;;;;0.85;0.30;;;21.00;46.80;;;;;;5032180;28;20032;-50
2023/01/11 06:13:41;;;;;;;1.50;0.43;;;21.00;46.80;;;;;;5029825;28;20385;-53
2023/01/11 06:16:09;;;;;;;0.70;0.32;;;21.00;46.80;;;;;;5030320;28;20480;-53
2023/01/11 06:18:39;;;;;;;1.30;0.50;;;21.00;46.80;;;;;;5026583;28;20044;-51
2023/01/11 06:21:06;;;;;;;2.55;0.60;;;21.00;46.80;;;;;;5035563;28;20025;-50
2023/01/11 06:23:33;;;;;;;1.23;0.52;;;21.00;46.80;;;;;;5036844;28;20096;-53
2023/01/11 06:26:08;;;;;;;1.10;0.50;;;21.00;46.80;;;;;;5035554;28;20504;-52
2023/01/11 06:28:34;;;;;;;;;;;21.00;46.80;;;;;;5034702;28;20108;-49
2023/01/11 06:31:00;;;;;;;1.48;0.73;;;21.00;46.80;;;;;;5036028;28;19909;-48
2023/01/11 06:33:27;;;;;;;1.33;0.43;;;21.00;46.80;;;;;;5034883;28;20021;-49
2023/01/11 06:35:54;;;;;;;2.15;0.65;;;21.00;46.80;;;;;;5036091;28;20033;-51
2023/01/11 06:38:21;;;;;;;2.35;0.70;;;20.90;46.80;;;;;;5035709;28;20025;-52
2023/01/11 06:40:59;;;;;;;1.42;0.40;;;20.90;46.70;;;;;;5035929;28;20037;-51
2023/01/11 06:43:26;;;;;;;3.45;1.10;;;20.90;46.70;;;;;;5034078;28;20441;-53
2023/01/11 06:45:52;;;;;;;2.00;0.60;;;20.90;46.70;;;;;;5035822;28;20037;-48
2023/01/11 06:48:20;;;;;;;1.92;0.57;;;20.90;46.70;;;;;;5033537;28;20037;-49
2023/01/11 06:50:51;;;;;;;2.33;0.70;;;20.90;46.60;;;;;;5028433;28;20029;-54
2023/01/11 06:53:17;;;;;;;2.35;0.77;;;20.90;46.60;;;;;;5026357;28;20445;-52
2023/01/11 06:55:43;;;;;;;3.22;0.63;;;20.90;46.50;;;;;;5011020;28;20356;-46
2023/01/11 06:58:09;;;;;;;2.00;0.90;;;20.90;46.50;;;;;;5025460;28;20025;-49
2023/01/11 07:00:36;;;;;;;2.10;0.80;;;20.90;46.40;;;;;;5027689;28;20031;-51
2023/01/11 07:03:03;;;;;;;3.00;0.93;;;20.90;46.40;;;;;;5024602;28;20041;-52
2023/01/11 07:05:31;;;;;;;2.13;0.70;;;20.90;46.40;;;;;;5035202;28;20025;-52
2023/01/11 07:07:57;;;;;;;2.33;0.80;;;20.90;46.30;;;;;;5030848;28;20030;-50
2023/01/11 07:10:23;;;;;;;1.70;0.60;;;20.90;46.20;;;;;;5026286;28;20032;-51
2023/01/11 07:12:49;;;;;;;3.38;0.93;;;20.90;46.20;;;;;;5029428;28;20144;-50
2023/01/11 07:15:15;;;;;;;2.08;0.80;;;20.90;46.20;;;;;;5032333;28;20021;-51
2023/01/11 07:17:40;;;;;;;2.60;1.00;;;20.90;46.20;;;;;;5023239;28;20037;-51
2023/01/11 07:20:07;;;;;;;2.83;0.90;;;20.90;46.20;;;;;;5023284;28;20026;-52
2023/01/11 07:22:42;;;;;;;3.17;0.93;;;20.90;46.20;;;;;;5031928;28;20045;-51
2023/01/11 07:25:09;;;;;;;2.55;0.82;;;20.90;46.20;;;;;;5028094;28;20497;-47
2023/01/11 07:27:35;;;;;;;2.28;0.88;;;20.90;46.20;;;;;;5024458;28;20116;-50
2023/01/11 07:30:02;;;;;;;4.00;1.13;;;20.80;46.10;;;;;;5031569;28;20444;-52
2023/01/11 07:32:28;;;;;;;6.18;1.25;;;20.90;46.20;;;;;;5024919;28;20029;-48
2023/01/11 07:34:55;;;;;;;2.83;0.93;;;20.80;46.10;;;;;;5021379;28;20091;-54
2023/01/11 07:37:24;;;;;;;2.80;1.00;;;20.80;46.00;;;;;;5019498;28;20017;-51
2023/01/11 07:39:50;;;;;;;4.15;1.25;;;20.80;46.00;;;;;;5024297;28;20109;-55
2023/01/11 07:45:01;;;;;;;5.03;1.10;;;20.80;45.90;;;;;;5025971;28;20095;-51
2023/01/11 07:47:27;;;;;;;3.17;1.02;;;20.80;45.90;;;;;;5022235;28;20033;-52
2023/01/11 07:49:55;;;;;;;4.05;1.25;;;20.80;45.90;;;;;;5002343;28;20025;-53
2023/01/11 07:52:22;;;;;;;4.38;1.20;;;20.80;45.90;;;;;;5032914;28;20060;-53
2023/01/11 07:54:48;;;;;;;5.22;1.40;;;20.80;45.90;;;;;;5019119;28;20380;-52
2023/01/11 07:57:15;;;;;;;6.53;1.48;;;20.80;46.00;;;;;;5010209;28;20030;-52
2023/01/11 07:59:41;;;;;;;4.43;1.10;;;20.80;46.00;;;;;;5021876;28;20030;-54
2023/01/11 08:02:13;;;;;;;4.97;1.40;;;20.80;46.00;;;;;;5017059;28;20358;-53
2023/01/11 08:04:39;;;;;;;3.08;1.00;;;20.90;46.00;;;;;;5021044;28;20034;-49
2023/01/11 08:07:06;;;;;;;3.08;1.02;;;20.90;46.00;;;;;;4998666;28;20068;-52
2023/01/11 08:09:32;;;;;;;8.43;1.48;;;20.90;45.90;;;;;;5019955;28;20213;-50
2023/01/11 08:14:44;;;;;;;4.97;1.70;;;21.00;45.90;;;;;;5016800;28;20136;-50
2023/01/11 08:17:14;;;;;;;3.58;1.45;;;21.00;45.90;;;;;;5021892;28;20456;-49
2023/01/11 08:19:42;;;;;;;6.68;1.65;;;21.00;45.70;;;;;;5041635;28;20021;-49
2023/01/11 08:22:08;;;;;;;4.85;1.73;;;21.00;45.70;;;;;;5032684;28;20033;-52
2023/01/11 08:24:35;;;;;;;6.22;2.00;;;21.10;45.60;;;;;;5033225;28;20052;-49
2023/01/11 08:27:02;;;;;;;4.47;1.80;;;21.10;45.60;;;;;;5026754;28;20025;-52
2023/01/11 08:29:30;;;;;;;5.00;1.50;;;21.10;45.40;;;;;;5028412;28;20029;-47
2023/01/11 08:31:58;;;;;;;5.22;1.80;;;21.10;45.40;;;;;;5026822;28;20372;-52
2023/01/11 08:34:24;;;;;;;3.90;1.48;;;21.20;45.30;;;;;;5021638;28;20037;-51
2023/01/11 08:36:50;;;;;;;6.75;1.77;;;21.20;45.30;;;;;;5024560;28;20025;-49
2023/01/11 08:39:16;;;;;;;4.90;1.55;;;21.20;45.20;;;;;;5024195;28;20036;-53
2023/01/11 08:41:43;;;;;;;4.75;1.40;;;21.30;45.10;;;;;;5021010;28;20030;-52
2023/01/11 08:44:11;;;;;;;6.88;1.30;;;21.30;45.00;;;;;;5018725;28;20057;-51
2023/01/11 08:46:38;;;;;;;6.25;1.70;;;21.30;44.90;;;;;;5030347;28;20051;-50
2023/01/11 08:49:10;;;;;;;5.45;1.80;;;21.40;44.90;;;;;;5030466;28;20369;-51
2023/01/11 08:51:40;;;;;;;5.55;1.63;;;21.40;44.80;;;;;;5021305;28;20033;-54
2023/01/11 08:54:11;;;;;;;2.80;1.05;;;21.40;44.70;;;;;;5033014;28;20017;-52
2023/01/11 08:56:37;;;;;;;5.22;1.30;;;21.40;44.60;;;;;;5013390;28;20040;-48
2023/01/11 08:59:04;;;;;;;4.40;1.20;;;21.40;44.50;;;;;;5033223;28;20036;-52
2023/01/11 09:01:31;;;;;;;5.75;1.58;;;21.50;44.30;;;;;;5015912;28;20026;-50
2023/01/11 09:03:57;;;;;;;4.63;1.60;;;21.50;44.30;;;;;;5032986;28;20029;-49
2023/01/11 09:06:23;;;;;;;5.50;1.88;;;21.50;44.20;;;;;;5032991;28;20057;-51
2023/01/11 09:08:49;;;;;;;5.03;1.70;;;21.60;44.10;;;;;;5032189;28;20026;-50
2023/01/11 09:13:59;;;;;;;4.53;1.90;;;21.60;43.90;;;;;;5021791;28;20446;-53
2023/01/11 09:16:25;;;;;;;3.88;1.58;;;21.60;43.80;;;;;;5033157;28;20073;-53
2023/01/11 09:18:51;;;;;;;5.88;1.75;;;21.70;43.70;;;;;;5032449;28;20106;-53
2023/01/11 09:21:16;;;;;;;4.78;1.50;;;21.70;43.60;;;;;;5032732;28;20029;-53
2023/01/11 09:23:43;;;;;;;6.95;1.42;;;21.70;43.50;;;;;;5032820;28;20476;-49
2023/01/11 09:26:13;;;;;;;4.18;1.50;;;21.70;43.50;;;;;;5031910;28;20100;-52
2023/01/11 09:28:39;;;;;;;4.78;1.60;;;21.80;43.40;;;;;;5032031;28;20034;-52
2023/01/11 09:31:05;;;;;;;3.05;1.50;;;21.80;43.30;;;;;;5032312;28;20445;-52
2023/01/11 09:33:31;;;;;;;6.05;1.90;;;21.80;43.20;;;;;;5032696;28;20026;-51
2023/01/11 09:35:59;;;;;;;4.72;1.40;;;21.80;43.10;;;;;;5032039;28;20433;-52
2023/01/11 09:38:28;;;;;;;3.42;1.48;;;21.80;43.10;;;;;;5032823;28;20110;-54
2023/01/11 09:41:22;;;;;;;4.60;1.58;;;21.80;43.00;;;;;;5032422;28;20025;-51
2023/01/11 09:44:05;;;;;;;4.75;1.48;;;21.90;42.90;;;;;;5000637;28;20053;-52
2023/01/11 09:46:32;;;;;;;4.97;1.45;;;21.90;42.90;;;;;;5033476;28;20036;-49
2023/01/11 09:48:58;;;;;;;4.45;1.50;;;21.90;42.80;;;;;;5032740;28;20104;-53
2023/01/11 09:51:34;;;;;;;4.53;1.40;;;21.90;42.70;;;;;;5032151;28;20492;-52
2023/01/11 09:54:04;;;;;;;3.28;1.20;;;21.90;42.70;;;;;;5030664;28;20018;-54
2023/01/11 09:56:44;;;;;;;5.80;1.50;;;22.00;42.70;;;;;;5031931;28;20114;-53
2023/01/11 09:59:25;;;;;;;4.25;1.60;;;22.00;42.60;;;;;;5028846;28;20045;-52
2023/01/11 10:02:10;;;;;;;4.40;1.45;;;22.00;42.50;;;;;;5031080;28;20453;-51
2023/01/11 10:04:42;;;;;;;4.45;1.50;;;22.00;42.50;;;;;;5032198;28;20045;-53
2023/01/11 10:07:23;;;;;;;4.38;1.42;;;22.00;42.40;;;;;;5032301;28;20021;-51
2023/01/11 10:10:08;;;;;;;4.75;1.30;;;22.00;42.40;;;;;;5015512;28;20087;-52
2023/01/11 10:13:14;;;;;;;4.70;1.52;;;22.00;42.30;;;;;;5032665;28;20041;-52
2023/01/11 10:16:02;;;;;;;3.97;1.40;;;22.00;42.20;;;;;;5030879;28;20038;-50
2023/01/11 10:18:45;;;;;;;6.53;1.55;;;22.10;42.20;;;;;;5033148;28;20044;-49
2023/01/11 10:21:15;;;;;;;4.63;1.30;;;22.10;42.10;;;;;;5035390;28;20025;-56
2023/01/11 10:24:06;;;;;;;6.30;1.73;;;22.10;42.10;;;;;;5035996;28;20037;-53
2023/01/11 10:26:40;;;;;;;5.65;1.40;;;22.10;42.00;;;;;;5036503;28;20037;-55
2023/01/11 10:32:12;;;;;;;3.92;1.40;;;22.10;41.90;;;;;;5034250;28;20029;-52
2023/01/11 10:35:13;;;;;;;6.13;2.00;;;22.10;41.90;;;;;;5036782;28;20029;-53
2023/01/11 10:37:49;;;;;;;4.72;1.60;;;22.10;41.90;;;;;;5036074;28;20044;-52
2023/01/11 10:43:02;;;;;;;5.60;1.88;;;22.10;41.90;;;;;;5048162;28;20434;-49
2023/01/11 10:45:42;;;;;;;6.47;2.30;;;22.10;41.90;;;;;;5037425;28;20034;-55
2023/01/11 10:48:33;;;;;;;4.35;1.77;;;22.10;41.80;;;;;;5037557;28;20127;-54
2023/01/11 10:51:30;;;;;;;5.22;2.13;;;22.10;41.80;;;;;;5027127;28;20056;-49
2023/01/11 10:54:15;;;;;;;5.63;2.05;;;22.10;41.80;;;;;;5037294;28;20037;-46
2023/01/11 10:57:14;;;;;;;5.63;2.17;;;22.10;41.80;;;;;;5037015;28;20076;-49
2023/01/11 11:00:03;;;;;;;4.95;1.75;;;22.10;41.80;;;;;;5017095;28;20048;-48
2023/01/11 11:02:32;;;;;;;6.18;1.85;;;22.10;41.90;;;;;;5034421;28;20063;-50
2023/01/11 11:05:22;;;;;;;5.32;1.70;;;22.10;41.70;;;;;;5040104;28;20029;-54
2023/01/11 11:08:03;;;;;;;5.35;2.00;;;22.10;41.80;;;;;;5034022;28;20468;-52
2023/01/11 11:10:36;;;;;;;5.22;1.90;;;22.10;41.80;;;;;;5037145;28;20328;-56
2023/01/11 11:13:05;;;;;;;5.82;1.55;;;22.00;41.90;;;;;;5031217;28;20126;-56
2023/01/11 11:15:44;;;;;;;5.95;1.95;;;22.10;42.10;;;;;;5036576;28;20041;-56
2023/01/11 11:18:10;;;;;;;6.15;1.70;;;22.10;42.20;;;;;;5035807;28;20038;-55
2023/01/11 11:20:36;;;;;;;7.03;1.38;;;22.10;42.30;;;;;;5027179;28;20049;-57
2023/01/11 11:23:02;;;;;;;5.50;1.67;;;22.10;42.40;;;;;;5035977;28;20429;-53
2023/01/11 11:25:32;;;;;;;9.32;1.63;;;22.10;42.50;;;;;;5031369;28;20504;-56
2023/01/11 11:28:01;;;;;;;5.50;2.00;;;22.10;42.50;;;;;;5040719;28;20128;-55
2023/01/11 11:30:41;;;;;;;5.75;1.90;;;22.10;42.40;;;;;;5035570;28;20056;-56
2023/01/11 11:33:22;;;;;;;4.55;1.40;;;22.20;42.50;;;;;;5032533;28;20021;-59
2023/01/11 11:36:08;;;;;;;4.65;1.52;;;22.20;42.60;;;;;;5018260;28;20471;-58
2023/01/11 11:38:59;;;;;;;4.47;1.63;;;22.20;42.70;;;;;;5020052;28;20040;-54
2023/01/11 11:41:26;;;;;;;7.32;1.83;;;22.20;42.70;;;;;;5033743;28;20022;-56
2023/01/11 11:44:23;;;;;;;5.72;1.42;;;22.20;42.60;;;;;;5026613;28;20052;-51
2023/01/11 11:47:05;;;;;;;5.85;1.70;;;22.20;42.50;;;;;;5035655;28;20128;-51
2023/01/11 11:49:33;;;;;;;4.20;1.48;;;22.20;43.10;;;;;;5036044;28;20033;-49
2023/01/11 11:52:01;;;;;;;4.15;1.70;;;22.20;42.30;;;;;;5035909;28;20499;-53
2023/01/11 11:54:59;;;;;;;4.35;1.45;;;22.20;42.30;;;;;;5034936;28;20037;-49
2023/01/11 11:57:29;;;;;;;3.58;1.50;;;22.20;42.20;;;;;;4973221;28;20377;-56
2023/01/11 12:00:05;;;;;;;3.83;1.48;;;22.20;42.10;;;;;;5017103;28;20072;-55
2023/01/11 12:02:34;;;;;;;5.40;1.45;;;22.20;42.00;;;;;;5036331;28;20021;-54
2023/01/11 12:05:06;;;;;;;6.15;1.55;;;22.20;42.00;;;;;;5017324;28;20461;-53
2023/01/11 12:07:36;;;;;;;4.15;1.40;;;22.20;41.90;;;;;;5022021;28;20041;-52
2023/01/11 12:10:12;;;;;;;3.83;1.40;;;22.20;41.90;;;;;;5000220;28;20068;-54
2023/01/11 12:12:50;;;;;;;6.10;1.70;;;22.20;41.80;;;;;;5019105;28;20044;-53
2023/01/11 12:15:17;;;;;;;3.13;1.30;;;22.20;41.80;;;;;;5022489;28;20124;-55
2023/01/11 12:17:42;;;;;;;5.35;1.70;;;22.20;41.80;;;;;;5025192;28;20033;-53
2023/01/11 12:20:21;;;;;;;3.60;1.20;;;22.20;41.80;;;;;;5035655;28;20456;-54
2023/01/11 12:22:47;;;;;;;4.32;1.30;;;22.20;41.80;;;;;;5025271;28;20091;-52
2023/01/11 12:25:13;;;;;;;6.22;1.58;;;22.20;41.80;;;;;;5018676;28;20087;-51
2023/01/11 12:28:04;;;;;;;5.97;1.90;;;22.20;41.80;;;;;;5018052;28;20022;-54
2023/01/11 12:30:57;;;;;;;3.95;1.42;;;22.20;41.70;;;;;;5028509;28;20029;-54
2023/01/11 12:33:39;;;;;;;3.92;1.60;;;22.20;41.70;;;;;;5029345;28;20029;-53
2023/01/11 12:36:30;;;;;;;4.88;1.40;;;22.20;41.70;;;;;;5019898;28;20035;-50
2023/01/11 12:39:11;;;;;;;4.25;1.65;;;22.10;41.60;;;;;;4996698;28;20045;-52
2023/01/11 12:41:49;;;;;;;4.05;1.45;;;22.10;41.60;;;;;;5034003;28;20042;-51
2023/01/11 12:44:50;;;;;;;5.82;1.45;;;22.10;41.50;;;;;;5033967;28;20411;-53
2023/01/11 12:47:46;;;;;;;5.50;1.58;;;22.10;41.50;;;;;;5023209;28;20052;-54
2023/01/11 12:50:25;;;;;;;4.07;1.30;;;22.10;41.40;;;;;;5031912;28;20040;-53
2023/01/11 12:53:20;;;;;;;4.20;1.40;;;22.10;41.40;;;;;;5034529;28;20033;-53
2023/01/11 12:55:48;;;;;;;;;;;22.10;41.30;;;;;;4969697;28;20129;-49
2023/01/11 12:58:38;;;;;;;4.47;1.42;;;22.10;41.30;;;;;;5015249;28;19909;-49
2023/01/11 13:01:07;;;;;;;5.80;1.92;;;22.00;41.10;;;;;;5021518;28;20142;-46
2023/01/11 13:04:03;;;;;;;3.60;1.30;;;22.00;41.10;;;;;;5035183;28;20363;-52
2023/01/11 13:07:08;;;;;;;4.15;1.35;;;22.00;41.00;;;;;;5034106;28;20033;-51
2023/01/11 13:10:14;;;;;;;6.35;1.50;;;22.00;41.00;;;;;;5024793;28;20111;-52
2023/01/11 13:12:41;;;;;;;4.72;1.33;;;22.00;40.90;;;;;;4994050;28;20405;-53
2023/01/11 13:15:40;;;;;;;6.05;2.28;;;22.00;40.90;;;;;;5032646;28;20044;-52
2023/01/11 13:18:32;;;;;;;9.38;3.70;;;22.00;41.20;;;;;;5030391;28;20142;-49
2023/01/11 13:21:20;;;;;;;13.80;4.97;;;22.00;41.90;;;;;;5031074;28;20045;-53
2023/01/11 13:24:01;;;;;;;16.35;6.57;;;22.00;42.80;;;;;;5033863;28;20034;-56
2023/01/11 13:26:40;;;;;;;17.58;6.20;;;22.00;43.70;;;;;;5018527;28;20045;-51
2023/01/11 13:29:14;;;;;;;15.15;5.38;;;22.00;44.30;;;;;;5015605;28;20349;-53
2023/01/11 13:31:41;;;;;;;12.93;4.93;;;22.00;44.70;;;;;;5018715;28;20022;-56
2023/01/11 13:34:34;;;;;;;10.60;3.90;;;22.00;44.40;;;;;;5021150;28;20082;-56
2023/01/11 13:37:18;;;;;;;9.30;3.42;;;22.00;43.90;;;;;;4998366;28;20056;-53
2023/01/11 13:39:46;;;;;;;10.43;3.65;;;22.00;43.50;;;;;;5034710;28;20036;-51
2023/01/11 13:42:25;;;;;;;10.85;3.15;;;22.00;43.10;;;;;;5034396;28;20094;-51
2023/01/11 13:45:00;;;;;;;6.85;2.75;;;22.00;42.70;;;;;;5030109;28;20340;-53
2023/01/11 13:47:39;;;;;;;10.20;3.22;;;22.00;42.40;;;;;;5034357;28;20344;-50
2023/01/11 13:50:34;;;;;;;7.68;2.70;;;22.00;42.20;;;;;;5032285;28;20041;-48
2023/01/11 13:53:29;;;;;;;7.03;2.10;;;22.00;41.90;;;;;;5036123;28;20095;-49